Time;durP1;ratioP1;P1;durP2;ratioP2;P2;SDS_P1;SDS_P2;PMS_P1;PMS_P2;Temp;Humidity;BMP_temperature;BMP_pressure;BME280_temperature;BME280_humidity;BME280_pressure;Samples;Min_cycle;Max_cycle;Signal;HPM_P1;HPM_P2
2023/03/20 00:01:38;;;;;;;39.10;22.65;;;;;;;18.39;49.18;102038.56;5045154;28;20179;-35
2023/03/20 00:04:05;;;;;;;38.10;23.63;;;;;;;18.39;49.34;102038.56;5043216;28;20045;-35
2023/03/20 00:06:31;;;;;;;41.78;24.27;;;;;;;18.38;49.04;102030.66;5043053;28;20393;-35
2023/03/20 00:08:58;;;;;;;36.13;21.75;;;;;;;18.39;49.33;102037.72;5047015;28;20088;-34
2023/03/20 00:11:40;;;;;;;35.83;21.80;;;;;;;18.38;49.21;102028.81;5044360;28;20076;-38
2023/03/20 00:14:13;;;;;;;34.70;21.20;;;;;;;18.37;49.16;102020.88;5040869;28;20041;-34
2023/03/20 00:16:42;;;;;;;34.35;20.33;;;;;;;18.37;49.17;102015.50;5044502;28;20369;-35
2023/03/20 00:19:16;;;;;;;35.72;21.83;;;;;;;18.36;49.24;102009.28;5042441;28;20133;-35
2023/03/20 00:21:45;;;;;;;;;;;;;;;18.35;49.24;102006.72;5043149;28;20076;-35
2023/03/20 00:24:12;;;;;;;35.45;19.95;;;;;;;18.37;48.97;102016.38;5043250;28;20197;-35
2023/03/20 00:26:39;;;;;;;31.55;19.88;;;;;;;18.36;49.13;102021.84;5048427;28;20049;-35
2023/03/20 00:29:10;;;;;;;34.67;19.05;;;;;;;18.35;48.93;102020.16;5046016;28;20053;-36
2023/03/20 00:31:38;;;;;;;32.35;18.85;;;;;;;18.33;49.11;102016.72;5043213;28;20056;-35
2023/03/20 00:34:11;;;;;;;31.42;18.83;;;;;;;18.32;49.18;102025.75;5047254;28;20049;-36
2023/03/20 00:36:38;;;;;;;27.20;17.25;;;;;;;18.31;48.76;102037.50;5048574;28;20052;-36
2023/03/20 00:39:05;;;;;;;34.95;19.13;;;;;;;18.30;49.11;102033.97;5048038;28;20059;-35
2023/03/20 00:41:37;;;;;;;28.80;17.25;;;;;;;18.29;49.18;102039.44;5047194;28;20055;-36
2023/03/20 00:44:26;;;;;;;29.63;16.80;;;;;;;18.26;49.13;102045.91;5047111;28;20122;-35
2023/03/20 00:47:10;;;;;;;26.40;16.83;;;;;;;18.29;49.13;102050.16;5028109;28;20127;-36
2023/03/20 00:49:37;;;;;;;26.88;15.82;;;;;;;18.28;49.24;102064.56;5045116;28;20488;-36
2023/03/20 00:52:04;;;;;;;26.75;16.75;;;;;;;18.26;49.00;102067.41;5044353;28;20048;-36
2023/03/20 00:54:31;;;;;;;27.58;17.02;;;;;;;18.24;48.94;102064.81;5044097;28;20037;-36
2023/03/20 00:57:06;;;;;;;25.98;15.85;;;;;;;18.23;48.86;102056.91;5045504;28;20449;-34
2023/03/20 00:59:37;;;;;;;25.65;15.40;;;;;;;18.22;49.10;102056.06;5043160;28;20045;-35
2023/03/20 01:02:03;;;;;;;28.10;16.80;;;;;;;18.21;48.90;102050.78;5041920;28;20056;-35
2023/03/20 01:04:36;;;;;;;25.15;15.65;;;;;;;18.19;48.94;102044.72;5044065;28;20037;-36
2023/03/20 01:07:04;;;;;;;24.90;15.25;;;;;;;18.18;48.95;102043.88;5045838;28;20049;-36
2023/03/20 01:09:31;;;;;;;23.60;14.65;;;;;;;18.18;49.05;102059.97;5045376;28;20055;-37
2023/03/20 01:12:01;;;;;;;23.10;13.98;;;;;;;18.16;49.23;102047.63;5041352;28;20429;-36
2023/03/20 01:14:28;;;;;;;22.20;13.63;;;;;;;18.16;49.17;102047.63;5045399;28;20052;-35
2023/03/20 01:16:55;;;;;;;24.23;14.70;;;;;;;18.15;49.12;102051.31;5044532;28;20049;-35
2023/03/20 01:19:22;;;;;;;22.38;13.60;;;;;;;18.14;48.63;102057.66;5040224;28;20045;-36
2023/03/20 01:21:49;;;;;;;22.02;13.52;;;;;;;18.14;48.75;102049.63;5042382;28;20056;-35
2023/03/20 01:24:15;;;;;;;21.48;14.05;;;;;;;18.13;48.51;102058.63;5044998;28;20440;-37
2023/03/20 01:26:43;;;;;;;22.20;13.60;;;;;;;18.13;48.60;102053.25;5044920;28;20050;-35
2023/03/20 01:29:22;;;;;;;21.15;12.57;;;;;;;18.10;48.78;102051.69;5045046;28;20394;-36
2023/03/20 01:31:50;;;;;;;21.00;12.45;;;;;;;18.10;49.08;102057.06;5044525;28;20056;-36
2023/03/20 01:34:18;;;;;;;20.00;12.50;;;;;;;18.10;49.27;102045.47;5043000;28;20056;-35
2023/03/20 01:36:50;;;;;;;20.13;12.02;;;;;;;18.08;49.10;102036.69;5041097;28;20168;-37
2023/03/20 01:39:18;;;;;;;20.52;12.30;;;;;;;18.08;49.16;102045.56;5044999;28;20056;-35
2023/03/20 01:41:45;;;;;;;21.70;12.07;;;;;;;18.06;49.32;102042.19;5044905;28;20073;-35
2023/03/20 01:44:18;;;;;;;19.52;12.05;;;;;;;18.06;48.82;102058.28;5044645;28;20122;-35
2023/03/20 01:46:45;;;;;;;18.58;11.60;;;;;;;18.04;48.84;102060.22;5041789;28;20071;-35
2023/03/20 01:49:18;;;;;;;19.67;11.95;;;;;;;18.02;48.59;102075.59;5044397;28;20253;-37
2023/03/20 01:51:45;;;;;;;18.63;11.40;;;;;;;18.03;48.75;102063.88;5046872;28;20125;-36
2023/03/20 01:54:15;;;;;;;18.52;11.07;;;;;;;18.01;49.15;102057.81;5049226;28;20045;-36
2023/03/20 01:56:49;;;;;;;19.40;11.55;;;;;;;18.01;48.69;102079.28;5048313;28;20053;-35
2023/03/20 01:59:23;;;;;;;18.27;11.05;;;;;;;18.00;48.66;102066.81;5047275;28;20049;-35
2023/03/20 02:01:50;;;;;;;19.10;10.90;;;;;;;17.99;48.85;102071.31;5046254;28;20051;-34
2023/03/20 02:04:20;;;;;;;17.30;9.77;;;;;;;17.99;49.04;102075.84;5045217;28;20045;-35
2023/03/20 02:06:46;;;;;;;19.60;11.20;;;;;;;17.98;49.25;102058.03;5045382;28;20045;-35
2023/03/20 02:09:13;;;;;;;16.45;10.15;;;;;;;17.98;48.72;102050.00;5047390;28;20044;-35
2023/03/20 02:11:42;;;;;;;16.10;9.88;;;;;;;17.97;48.86;102048.31;5048060;28;21468;-35
2023/03/20 02:14:10;;;;;;;19.45;10.18;;;;;;;17.96;48.93;102039.38;5049537;28;20053;-35
2023/03/20 02:16:36;;;;;;;16.42;9.48;;;;;;;17.97;48.82;102034.88;5046791;28;20063;-36
2023/03/20 02:19:06;;;;;;;17.10;9.68;;;;;;;17.97;48.97;102032.22;5047582;28;20433;-36
2023/03/20 02:21:57;;;;;;;17.23;10.48;;;;;;;17.93;49.13;102033.41;5052703;28;20056;-36
2023/03/20 02:24:45;;;;;;;16.00;9.50;;;;;;;17.93;48.93;102036.97;5043505;28;20176;-35
2023/03/20 02:27:37;;;;;;;16.95;9.85;;;;;;;17.92;48.93;102029.88;5049092;28;20057;-35
2023/03/20 02:30:23;;;;;;;16.67;9.60;;;;;;;17.91;48.83;102027.31;5047336;28;20399;-34
2023/03/20 02:33:08;;;;;;;15.25;9.05;;;;;;;17.90;48.95;102017.56;5051498;28;20055;-35
2023/03/20 02:35:53;;;;;;;15.88;9.70;;;;;;;17.88;48.54;102019.50;5048538;28;21089;-35
2023/03/20 02:38:32;;;;;;;13.38;8.88;;;;;;;17.88;48.83;102015.00;5048022;28;20055;-37
2023/03/20 02:41:29;;;;;;;15.68;9.68;;;;;;;17.86;48.61;102026.84;5046150;28;20053;-35
2023/03/20 02:44:11;;;;;;;16.33;9.25;;;;;;;17.86;48.64;102008.06;5046435;28;20323;-35
2023/03/20 02:46:50;;;;;;;14.65;7.95;;;;;;;17.85;48.35;101993.81;5045920;28;20067;-36
2023/03/20 02:49:41;;;;;;;12.30;7.38;;;;;;;17.86;48.59;101994.66;5045919;28;20432;-37
2023/03/20 02:52:23;;;;;;;14.10;8.25;;;;;;;17.84;48.58;101969.78;5046002;28;20060;-35
2023/03/20 02:55:07;;;;;;;14.32;8.20;;;;;;;17.82;48.59;101961.88;5048257;28;20042;-35
2023/03/20 02:57:40;;;;;;;14.23;8.02;;;;;;;17.81;49.23;101968.22;5045979;28;20057;-35
2023/03/20 03:00:20;;;;;;;13.85;7.95;;;;;;;17.81;48.63;101983.44;5042510;28;20153;-36
2023/03/20 03:02:57;;;;;;;14.68;7.90;;;;;;;17.79;48.72;101986.25;5045177;28;20416;-35
2023/03/20 03:05:31;;;;;;;12.40;7.22;;;;;;;17.78;48.44;101978.34;5042166;28;20045;-35
2023/03/20 03:08:01;;;;;;;15.07;7.50;;;;;;;17.76;48.58;101973.94;5044589;28;20409;-37
2023/03/20 03:10:35;;;;;;;11.80;7.13;;;;;;;17.76;48.58;101991.84;5044597;28;20085;-36
2023/03/20 03:13:06;;;;;;;12.05;7.45;;;;;;;17.74;48.39;101994.69;5046227;28;20139;-36
2023/03/20 03:15:44;;;;;;;12.63;7.32;;;;;;;17.73;48.72;101990.25;5041536;28;20052;-35
2023/03/20 03:18:16;;;;;;;13.02;7.25;;;;;;;17.74;48.40;101985.75;5046842;28;20077;-35
2023/03/20 03:20:44;;;;;;;13.45;7.88;;;;;;;17.72;48.49;101976.97;5046286;28;20049;-36
2023/03/20 03:23:25;;;;;;;11.73;7.00;;;;;;;17.71;48.72;101986.00;5045454;28;20056;-35
2023/03/20 03:25:54;;;;;;;11.63;6.50;;;;;;;17.71;48.81;101986.00;5044293;28;20045;-36
2023/03/20 03:28:28;;;;;;;13.73;7.18;;;;;;;17.69;48.85;101988.81;5046868;28;20037;-36
2023/03/20 03:30:57;;;;;;;10.98;6.80;;;;;;;17.69;48.62;101983.44;5041633;28;20051;-35
2023/03/20 03:33:28;;;;;;;12.38;7.03;;;;;;;17.67;48.44;101977.34;5044693;28;20134;-35
2023/03/20 03:36:07;;;;;;;11.18;6.90;;;;;;;17.66;48.50;101974.78;5049518;28;20044;-35
2023/03/20 03:38:44;;;;;;;9.80;6.18;;;;;;;17.66;48.56;101966.75;5048710;28;20049;-35
2023/03/20 03:41:17;;;;;;;10.63;6.13;;;;;;;17.65;48.40;101957.84;5049454;28;20330;-35
2023/03/20 03:44:04;;;;;;;13.65;6.95;;;;;;;17.63;48.78;101956.25;5050725;28;20357;-35
2023/03/20 03:46:51;;;;;;;12.48;7.35;;;;;;;17.64;48.38;101949.91;5048981;28;20045;-35
2023/03/20 03:49:25;;;;;;;12.27;6.53;;;;;;;17.63;48.38;101949.06;5045852;28;20064;-35
2023/03/20 03:51:57;;;;;;;15.10;7.65;;;;;;;17.62;48.89;101942.00;5049872;28;20124;-36
2023/03/20 03:54:30;;;;;;;11.38;7.20;;;;;;;17.61;48.34;101934.94;5046526;28;20124;-35
2023/03/20 03:57:00;;;;;;;10.93;6.50;;;;;;;17.63;48.12;101935.66;5048410;28;20045;-36
2023/03/20 03:59:36;;;;;;;11.55;6.57;;;;;;;17.61;48.54;101926.03;5049936;28;20388;-35
2023/03/20 04:02:07;;;;;;;10.02;5.82;;;;;;;17.61;48.94;101942.13;5047117;28;20045;-37
2023/03/20 04:04:39;;;;;;;11.25;6.40;;;;;;;17.60;48.75;101938.59;5047837;28;20063;-35
2023/03/20 04:07:05;;;;;;;11.07;6.53;;;;;;;17.59;47.92;101928.84;5048519;28;20059;-35
2023/03/20 04:09:32;;;;;;;10.05;6.30;;;;;;;17.58;48.46;101927.16;5042143;28;20059;-35
2023/03/20 04:11:59;;;;;;;10.55;6.47;;;;;;;17.58;48.27;101927.16;5048715;28;20049;-35
2023/03/20 04:14:26;;;;;;;10.32;5.90;;;;;;;17.57;48.22;101928.13;5044912;28;20063;-35
2023/03/20 04:16:52;;;;;;;10.80;5.72;;;;;;;17.57;47.78;101927.25;5048791;28;20052;-36
2023/03/20 04:19:19;;;;;;;10.93;6.25;;;;;;;17.57;48.66;101928.13;5049386;28;20336;-36
2023/03/20 04:21:45;;;;;;;10.98;6.38;;;;;;;17.55;48.31;101930.06;5041086;28;20126;-36
2023/03/20 04:24:12;;;;;;;9.98;6.15;;;;;;;17.55;48.59;101937.25;5044273;28;20093;-36
2023/03/20 04:26:39;;;;;;;9.90;6.28;;;;;;;17.54;48.37;101941.78;5041666;28;20049;-37
2023/03/20 04:29:05;;;;;;;9.65;5.68;;;;;;;17.55;48.60;101948.00;5038916;28;20428;-36
2023/03/20 04:31:32;;;;;;;10.57;5.65;;;;;;;17.54;48.75;101951.66;5045594;28;20507;-35
2023/03/20 04:33:59;;;;;;;11.65;6.00;;;;;;;17.53;48.28;101942.75;5048272;28;20045;-35
2023/03/20 04:36:25;;;;;;;10.70;5.78;;;;;;;17.52;48.44;101943.72;5044120;28;20044;-35
2023/03/20 04:38:52;;;;;;;7.57;5.10;;;;;;;17.51;48.06;101942.00;5045283;28;20117;-35
2023/03/20 04:41:22;;;;;;;11.73;5.72;;;;;;;17.50;48.35;101934.97;5046030;28;20053;-35
2023/03/20 04:43:49;;;;;;;8.20;5.10;;;;;;;17.50;47.87;101934.97;5041988;28;20060;-35
2023/03/20 04:46:15;;;;;;;9.95;5.68;;;;;;;17.49;48.21;101934.09;5045541;28;20047;-36
2023/03/20 04:48:42;;;;;;;9.18;6.00;;;;;;;17.49;48.03;101927.91;5045676;28;20067;-35
2023/03/20 04:51:09;;;;;;;8.05;5.10;;;;;;;17.48;48.21;101926.16;5044978;28;20052;-34
2023/03/20 04:53:36;;;;;;;8.15;4.75;;;;;;;17.48;48.23;101928.84;5045103;28;20643;-34
2023/03/20 04:56:02;;;;;;;8.27;5.22;;;;;;;17.45;48.33;101919.25;5042077;28;20587;-35
2023/03/20 04:58:29;;;;;;;8.32;5.30;;;;;;;17.44;47.95;101914.84;5044917;28;20053;-35
2023/03/20 05:00:55;;;;;;;8.18;5.10;;;;;;;17.45;47.98;101921.09;5044661;28;20051;-35
2023/03/20 05:03:22;;;;;;;8.52;5.32;;;;;;;17.44;48.17;101920.19;5045785;28;20080;-35
2023/03/20 05:05:49;;;;;;;9.52;5.15;;;;;;;17.42;48.15;101924.84;5047489;28;20150;-35
2023/03/20 05:08:16;;;;;;;9.38;5.30;;;;;;;17.41;48.20;101911.59;5047612;28;20067;-35
2023/03/20 05:10:43;;;;;;;8.65;5.38;;;;;;;17.41;47.76;101916.94;5041562;28;20440;-35
2023/03/20 05:13:09;;;;;;;9.65;5.38;;;;;;;17.38;47.41;101914.50;5039973;28;20483;-36
2023/03/20 05:15:36;;;;;;;7.93;4.68;;;;;;;17.37;47.71;101915.50;5041831;28;20111;-35
2023/03/20 05:18:03;;;;;;;12.07;5.57;;;;;;;17.36;47.48;101913.75;5047679;28;20049;-35
2023/03/20 05:20:30;;;;;;;9.45;4.88;;;;;;;17.34;47.72;101913.91;5051860;28;20068;-35
2023/03/20 05:22:56;;;;;;;11.55;4.85;;;;;;;17.35;47.66;101914.75;5050014;28;20132;-35
2023/03/20 05:25:23;;;;;;;10.98;4.72;;;;;;;17.34;47.45;101915.72;5047751;28;20361;-36
2023/03/20 05:27:49;;;;;;;7.65;4.70;;;;;;;17.33;47.55;101912.19;5053577;28;20056;-36
2023/03/20 05:30:16;;;;;;;9.55;5.10;;;;;;;17.33;47.84;101916.72;5048198;28;20060;-36
2023/03/20 05:32:42;;;;;;;9.68;5.13;;;;;;;17.31;47.58;101919.50;5050831;28;20348;-36
2023/03/20 05:35:10;;;;;;;10.38;5.22;;;;;;;17.30;47.67;101923.16;5050568;28;20057;-35
2023/03/20 05:37:38;;;;;;;7.28;4.50;;;;;;;17.28;47.82;101925.94;5052122;28;20056;-37
2023/03/20 05:40:06;;;;;;;9.68;5.13;;;;;;;17.26;47.94;101927.91;5048179;28;20139;-37
2023/03/20 05:42:32;;;;;;;7.75;4.20;;;;;;;17.27;47.69;101939.47;5051372;28;20345;-37
2023/03/20 05:44:59;;;;;;;9.40;5.32;;;;;;;17.26;47.39;101937.78;5044913;28;20051;-36
2023/03/20 05:47:26;;;;;;;7.13;5.15;;;;;;;17.26;47.72;101938.63;5049938;28;20092;-36
2023/03/20 05:49:52;;;;;;;7.03;4.32;;;;;;;17.25;47.18;101939.59;5051085;28;20449;-38
2023/03/20 05:52:19;;;;;;;10.77;4.82;;;;;;;17.25;47.96;101938.75;5051838;28;20053;-36
2023/03/20 05:54:46;;;;;;;11.20;5.07;;;;;;;17.24;47.34;101928.97;5050246;28;20090;-39
2023/03/20 05:57:12;;;;;;;10.20;4.75;;;;;;;17.24;47.82;101928.97;5051033;28;20417;-36
2023/03/20 05:59:39;;;;;;;8.63;4.70;;;;;;;17.22;47.20;101939.84;5048398;28;20049;-36
2023/03/20 06:02:06;;;;;;;11.45;5.63;;;;;;;17.22;47.44;101939.00;5049975;28;20055;-36
2023/03/20 06:04:33;;;;;;;8.05;4.43;;;;;;;17.22;47.85;101942.53;5050297;28;20077;-35
2023/03/20 06:07:00;;;;;;;9.05;5.03;;;;;;;17.21;47.92;101935.47;5051194;28;20819;-36
2023/03/20 06:09:27;;;;;;;7.00;5.05;;;;;;;17.20;47.24;101933.72;5047136;28;20132;-38
2023/03/20 06:11:53;;;;;;;8.63;4.78;;;;;;;17.19;47.91;101942.75;5045683;28;20426;-37
2023/03/20 06:14:20;;;;;;;8.63;4.45;;;;;;;17.19;47.29;101941.91;5047327;28;20053;-36
2023/03/20 06:16:46;;;;;;;6.30;4.20;;;;;;;17.18;47.58;101943.72;5047882;28;20436;-37
2023/03/20 06:19:13;;;;;;;8.93;4.40;;;;;;;17.19;47.61;101947.25;5051351;28;20084;-37
2023/03/20 06:21:39;;;;;;;8.50;4.90;;;;;;;17.19;47.04;101953.47;5051045;28;20451;-36
2023/03/20 06:24:06;;;;;;;8.18;4.47;;;;;;;17.19;47.46;101949.94;5050953;28;20094;-36
2023/03/20 06:26:33;;;;;;;9.45;4.70;;;;;;;17.18;47.44;101945.56;5050287;28;20049;-36
2023/03/20 06:29:00;;;;;;;8.73;4.95;;;;;;;17.18;47.40;101953.59;5048534;28;20048;-36
2023/03/20 06:31:26;;;;;;;7.15;3.97;;;;;;;17.16;47.45;101961.75;5050962;28;20053;-35
2023/03/20 06:33:53;;;;;;;6.75;4.50;;;;;;;17.16;46.87;101961.75;5051506;28;20341;-37
2023/03/20 06:36:20;;;;;;;6.13;3.70;;;;;;;17.15;47.18;101961.88;5050776;28;20052;-35
2023/03/20 06:38:46;;;;;;;8.40;4.18;;;;;;;17.14;47.96;101955.66;5054790;28;20128;-36
2023/03/20 06:41:13;;;;;;;8.50;4.55;;;;;;;17.14;47.38;101957.50;5052342;28;20049;-36
2023/03/20 06:43:59;;;;;;;9.05;4.63;;;;;;;17.15;47.31;101962.72;5054066;28;20044;-36
2023/03/20 06:46:25;;;;;;;7.75;4.13;;;;;;;17.15;47.58;101961.88;5054877;28;20057;-36
2023/03/20 06:48:52;;;;;;;8.32;4.53;;;;;;;17.13;47.62;101959.31;5054956;28;20045;-35
2023/03/20 06:51:18;;;;;;;9.75;4.80;;;;;;;17.14;47.49;101962.84;5054064;28;20143;-35
2023/03/20 06:53:45;;;;;;;11.82;4.28;;;;;;;17.13;47.32;101962.00;5054531;28;20463;-35
2023/03/20 06:56:12;;;;;;;9.48;4.30;;;;;;;17.13;47.62;101963.84;5052443;28;20076;-35
2023/03/20 06:58:38;;;;;;;9.40;4.60;;;;;;;17.13;47.32;101961.16;5053564;28;20488;-36
2023/03/20 07:01:10;;;;;;;7.95;4.35;;;;;;;17.12;46.78;101954.91;5050923;28;20087;-35
2023/03/20 07:03:36;;;;;;;9.18;4.45;;;;;;;17.12;46.96;101965.63;5049755;28;20045;-36
2023/03/20 07:06:03;;;;;;;9.52;4.30;;;;;;;17.11;46.48;101971.97;5049613;28;20041;-36
2023/03/20 07:08:30;;;;;;;8.48;4.88;;;;;;;17.12;47.28;101967.47;5053008;28;20075;-36
2023/03/20 07:11:00;;;;;;;8.13;4.72;;;;;;;17.11;47.36;101973.81;5045088;28;20395;-35
2023/03/20 07:13:27;;;;;;;8.52;4.65;;;;;;;17.10;46.94;101978.31;5034151;28;20053;-36
2023/03/20 07:15:53;;;;;;;8.02;4.00;;;;;;;17.09;46.83;101973.94;5050609;28;21095;-35
2023/03/20 07:18:30;;;;;;;9.18;4.38;;;;;;;17.08;46.48;101966.00;5046953;28;20183;-38
2023/03/20 07:21:01;;;;;;;17.85;5.25;;;;;;;17.08;46.65;101972.19;5052011;28;20053;-37
2023/03/20 07:23:29;;;;;;;9.43;4.05;;;;;;;17.08;47.15;101980.25;5053579;28;20091;-36
2023/03/20 07:25:57;;;;;;;8.18;3.50;;;;;;;17.08;46.69;101971.34;5047706;28;20045;-36
2023/03/20 07:28:23;;;;;;;9.13;4.70;;;;;;;17.08;46.81;101971.34;5049368;28;20045;-37
2023/03/20 07:30:50;;;;;;;7.28;3.83;;;;;;;17.08;46.79;101976.72;5051479;28;20357;-38
2023/03/20 07:33:17;;;;;;;8.60;4.28;;;;;;;17.07;46.49;101967.81;5051292;28;20060;-35
2023/03/20 07:35:44;;;;;;;8.30;3.78;;;;;;;17.08;46.68;101969.53;5052098;28;20041;-36
2023/03/20 07:38:10;;;;;;;6.82;4.10;;;;;;;17.08;46.68;101972.19;5052518;28;20049;-37
2023/03/20 07:40:37;;;;;;;7.05;3.65;;;;;;;17.07;46.52;101980.38;5048244;28;20049;-37
2023/03/20 07:43:03;;;;;;;9.32;4.15;;;;;;;17.06;46.67;101976.84;5049873;28;20127;-36
2023/03/20 07:45:31;;;;;;;8.30;4.13;;;;;;;17.07;46.89;101975.88;5049303;28;20068;-36
2023/03/20 07:47:58;;;;;;;7.50;3.33;;;;;;;17.07;46.45;101975.88;5051115;28;20140;-36
2023/03/20 07:50:24;;;;;;;8.00;3.65;;;;;;;17.07;46.19;101978.53;5052428;28;20099;-36
2023/03/20 07:52:51;;;;;;;7.50;3.80;;;;;;;17.08;46.95;101979.38;5051876;28;20052;-36
2023/03/20 07:55:17;;;;;;;7.95;3.65;;;;;;;17.07;46.97;101975.88;5047786;28;20082;-36
2023/03/20 07:57:44;;;;;;;7.90;3.67;;;;;;;17.08;46.43;101976.72;5051565;28;20051;-35
2023/03/20 08:00:11;;;;;;;8.90;3.70;;;;;;;17.09;46.06;101973.94;5048919;28;20128;-35
2023/03/20 08:02:38;;;;;;;9.13;3.63;;;;;;;17.10;46.66;101982.81;5052960;28;20067;-36
2023/03/20 08:05:05;;;;;;;7.68;3.22;;;;;;;17.10;46.88;101978.31;5050209;28;20041;-37
2023/03/20 08:07:31;;;;;;;7.25;3.15;;;;;;;17.12;46.89;101980.84;5050872;28;20106;-36
2023/03/20 08:09:58;;;;;;;7.75;3.50;;;;;;;17.13;46.57;101979.91;5046989;28;20077;-35
2023/03/20 08:12:25;;;;;;;7.22;3.58;;;;;;;17.12;46.72;101973.66;5045398;28;20053;-36
2023/03/20 08:14:52;;;;;;;7.72;3.25;;;;;;;17.14;46.52;101982.47;5046950;28;20040;-36
2023/03/20 08:17:19;;;;;;;5.13;3.25;;;;;;;17.15;46.24;101983.31;5042903;28;20119;-36
2023/03/20 08:19:47;;;;;;;7.85;3.08;;;;;;;17.14;46.15;101982.47;5046093;28;20049;-35
2023/03/20 08:22:13;;;;;;;9.77;4.05;;;;;;;17.14;46.30;101985.13;5047522;28;20045;-37
2023/03/20 08:24:40;;;;;;;5.45;3.03;;;;;;;17.13;46.47;101980.75;5049903;28;20124;-36
2023/03/20 08:27:07;;;;;;;8.00;2.97;;;;;;;17.14;45.91;101981.59;5045395;28;20076;-35
2023/03/20 08:29:34;;;;;;;5.70;3.13;;;;;;;17.14;46.24;101992.31;5046570;28;20073;-36
2023/03/20 08:32:01;;;;;;;8.00;4.18;;;;;;;17.13;46.28;101988.78;5047713;28;20045;-36
2023/03/20 08:34:27;;;;;;;7.18;2.88;;;;;;;17.13;46.20;101986.13;5044785;28;20045;-37
2023/03/20 08:36:54;;;;;;;6.20;2.90;;;;;;;17.14;45.78;101989.66;5048796;28;20091;-36
2023/03/20 08:39:21;;;;;;;4.38;2.58;;;;;;;17.14;45.98;101979.78;5049732;28;20057;-36
2023/03/20 08:41:48;;;;;;;7.50;2.97;;;;;;;17.14;46.34;101987.81;5049232;28;20051;-36
2023/03/20 08:44:15;;;;;;;5.65;3.15;;;;;;;17.14;45.95;101987.81;5047449;28;20087;-36
2023/03/20 08:46:43;;;;;;;7.82;2.65;;;;;;;17.16;46.56;101990.38;5032369;28;20087;-36
2023/03/20 08:49:10;;;;;;;5.88;2.80;;;;;;;17.16;46.23;101979.66;5048627;28;20135;-37
2023/03/20 08:51:36;;;;;;;7.30;3.53;;;;;;;17.16;46.09;101991.22;5046810;28;20316;-37
2023/03/20 08:54:04;;;;;;;5.60;2.65;;;;;;;17.17;46.44;101982.22;5049090;28;20123;-36
2023/03/20 08:56:31;;;;;;;7.38;2.92;;;;;;;17.18;46.02;101983.91;5045368;28;20163;-36
2023/03/20 08:58:58;;;;;;;8.82;2.90;;;;;;;17.19;46.76;101993.66;5046280;28;20065;-35
2023/03/20 09:01:24;;;;;;;7.78;2.92;;;;;;;17.18;46.31;101986.59;5050681;28;20409;-36
2023/03/20 09:04:07;;;;;;;9.48;3.78;;;;;;;17.19;46.46;101984.78;5050560;28;20123;-36
2023/03/20 09:06:38;;;;;;;7.47;2.83;;;;;;;17.18;45.97;101989.28;5040745;28;20055;-36
2023/03/20 09:09:05;;;;;;;5.70;2.85;;;;;;;17.19;46.25;101990.97;5042217;28;20128;-35
2023/03/20 09:11:32;;;;;;;7.55;2.72;;;;;;;17.20;46.34;101986.47;5041964;28;20348;-35
2023/03/20 09:13:59;;;;;;;6.18;2.60;;;;;;;17.20;46.02;101989.16;5039501;28;20427;-36
2023/03/20 09:16:26;;;;;;;7.95;3.10;;;;;;;17.20;46.09;101989.16;5041768;28;20053;-36
2023/03/20 09:18:54;;;;;;;8.30;2.80;;;;;;;17.20;45.99;101991.81;5036779;28;20060;-36
2023/03/20 09:21:20;;;;;;;9.55;3.05;;;;;;;17.20;46.00;101989.16;5041622;28;20080;-36
2023/03/20 09:23:47;;;;;;;5.47;2.42;;;;;;;17.20;46.46;101979.28;5043711;28;20337;-35
2023/03/20 09:26:13;;;;;;;4.15;2.10;;;;;;;17.21;45.95;101988.19;5039591;28;20045;-35
2023/03/20 09:28:40;;;;;;;5.63;3.10;;;;;;;17.21;45.61;101974.81;5042859;28;20053;-36
2023/03/20 09:31:06;;;;;;;6.18;2.47;;;;;;;17.21;46.06;101978.34;5040075;28;20090;-35
2023/03/20 09:33:33;;;;;;;4.75;2.38;;;;;;;17.22;45.95;101979.19;5042844;28;20057;-35
2023/03/20 09:36:00;;;;;;;6.18;2.72;;;;;;;17.21;45.76;101981.00;5040867;28;20055;-35
2023/03/20 09:38:26;;;;;;;8.30;2.30;;;;;;;17.23;45.87;101975.53;5041238;28;20060;-36
2023/03/20 09:40:56;;;;;;;7.13;2.58;;;;;;;17.23;46.08;101976.38;5041344;28;20048;-36
2023/03/20 09:43:31;;;;;;;7.50;2.88;;;;;;;17.23;46.20;101973.69;5040383;28;20808;-35
2023/03/20 09:46:24;;;;;;;6.97;2.33;;;;;;;17.23;46.37;101971.00;5040887;28;20045;-36
2023/03/20 09:49:25;;;;;;;8.43;2.58;;;;;;;17.26;46.38;101970.78;5041097;28;20060;-35
2023/03/20 09:51:57;;;;;;;4.63;2.25;;;;;;;17.26;46.08;101973.44;5042578;28;20055;-35
2023/03/20 09:54:39;;;;;;;5.93;2.60;;;;;;;17.27;46.56;101983.19;5041966;28;20099;-35
2023/03/20 09:57:38;;;;;;;6.95;2.38;;;;;;;17.28;45.96;101976.00;5041057;28;20041;-36
2023/03/20 10:00:27;;;;;;;6.47;2.20;;;;;;;17.28;46.09;101971.50;5041422;28;20087;-35
2023/03/20 10:03:02;;;;;;;5.68;2.17;;;;;;;17.31;45.51;101980.28;5044787;28;20107;-35
2023/03/20 10:05:31;;;;;;;6.90;3.08;;;;;;;17.31;45.59;101980.28;5039689;28;20060;-36
2023/03/20 10:08:01;;;;;;;5.30;2.30;;;;;;;17.33;45.74;101983.69;5040068;28;20067;-36
2023/03/20 10:10:45;;;;;;;4.55;1.88;;;;;;;17.33;45.73;101978.34;5041379;28;20063;-36
2023/03/20 10:13:36;;;;;;;6.10;2.20;;;;;;;17.31;45.73;101981.13;5043318;28;20136;-35
2023/03/20 10:16:08;;;;;;;5.18;2.20;;;;;;;17.32;45.75;101973.94;5044967;28;20041;-36
2023/03/20 10:18:39;;;;;;;6.97;2.60;;;;;;;17.35;45.64;101973.69;5045015;28;20072;-36
2023/03/20 10:21:17;;;;;;;5.55;2.25;;;;;;;17.33;45.91;101976.50;5044893;28;20051;-36
2023/03/20 10:24:02;;;;;;;6.40;2.65;;;;;;;17.34;46.25;101972.00;5044276;28;20090;-36
2023/03/20 10:26:34;;;;;;;9.45;2.83;;;;;;;17.35;46.06;101966.50;5045749;28;20048;-35
2023/03/20 10:29:17;;;;;;;5.20;2.00;;;;;;;17.37;45.77;101969.09;5041257;28;20348;-36
2023/03/20 10:32:07;;;;;;;6.97;1.77;;;;;;;17.37;46.14;101971.75;5045534;28;20045;-37
2023/03/20 10:34:40;;;;;;;6.13;2.28;;;;;;;17.38;45.87;101974.31;5043694;28;20120;-35
2023/03/20 10:37:16;;;;;;;4.82;2.47;;;;;;;17.39;46.02;101965.28;5044721;28;20557;-36
2023/03/20 10:40:04;;;;;;;4.30;2.40;;;;;;;17.39;46.13;101961.75;5047352;28;20048;-36
2023/03/20 10:42:39;;;;;;;4.80;2.28;;;;;;;17.39;46.04;101965.28;5044435;28;20045;-36
2023/03/20 10:45:24;;;;;;;6.93;2.30;;;;;;;17.39;46.03;101973.31;5041613;28;20045;-34
2023/03/20 10:47:51;;;;;;;6.47;2.70;;;;;;;17.39;45.54;101957.25;5042306;28;20049;-35
2023/03/20 10:50:22;;;;;;;6.80;2.28;;;;;;;17.39;45.50;101959.09;5042987;28;20056;-36
2023/03/20 10:52:52;;;;;;;6.40;2.35;;;;;;;17.39;45.89;101967.13;5041045;28;20148;-35
2023/03/20 10:55:33;;;;;;;6.88;2.65;;;;;;;17.40;45.63;101960.78;5044483;28;20073;-36
2023/03/20 10:58:12;;;;;;;6.47;2.92;;;;;;;17.39;45.84;101954.56;5045265;28;20048;-35
2023/03/20 11:00:39;;;;;;;10.80;2.40;;;;;;;17.39;45.70;101945.69;5050760;28;20082;-35
2023/03/20 11:03:21;;;;;;;6.65;2.83;;;;;;;17.39;46.02;101949.22;5052990;28;20321;-35
2023/03/20 11:05:59;;;;;;;7.90;3.30;;;;;;;17.40;45.86;101942.03;5053514;28;20388;-38
2023/03/20 11:08:41;;;;;;;7.22;2.35;;;;;;;17.40;45.75;101944.69;5053292;28;20061;-37
2023/03/20 11:11:08;;;;;;;9.43;3.05;;;;;;;17.40;46.15;101942.03;5051885;28;20053;-34
2023/03/20 11:13:38;;;;;;;8.00;2.15;;;;;;;17.39;46.13;101935.81;5049931;28;20051;-35
2023/03/20 11:16:20;;;;;;;5.38;2.53;;;;;;;17.38;46.24;101927.91;5049947;28;20135;-34
2023/03/20 11:18:49;;;;;;;8.80;2.75;;;;;;;17.40;46.29;101928.63;5051203;28;20132;-35
2023/03/20 11:21:28;;;;;;;6.60;2.50;;;;;;;17.39;46.30;101932.28;5050428;28;20049;-36
2023/03/20 11:23:54;;;;;;;7.38;3.13;;;;;;;17.40;46.06;101928.63;5049751;28;20053;-35
2023/03/20 11:26:37;;;;;;;9.73;3.25;;;;;;;17.40;45.94;101924.09;5048934;28;20055;-35
2023/03/20 11:29:06;;;;;;;9.18;3.00;;;;;;;17.41;45.84;101925.00;5045562;28;20049;-35
2023/03/20 11:31:36;;;;;;;7.82;2.50;;;;;;;17.40;45.99;101913.38;5047794;28;20051;-35
2023/03/20 11:34:05;;;;;;;8.25;3.22;;;;;;;17.40;46.50;101917.91;5044434;28;20055;-34
2023/03/20 11:36:34;;;;;;;9.10;2.78;;;;;;;17.42;45.98;101916.81;5042313;28;20344;-36
2023/03/20 11:39:13;;;;;;;8.90;2.80;;;;;;;17.41;46.26;101908.91;5044558;28;20080;-35